sensor_id;sensor_type;location;lat;lon;timestamp;temperature;humidity
23717;DHT22;22094;52.130;5.598;2023-01-23T00:00:52;1.60;99.90
23717;DHT22;22094;52.130;5.598;2023-01-23T00:03:17;2.10;99.90
23717;DHT22;22094;52.130;5.598;2023-01-23T00:05:43;1.70;99.90
23717;DHT22;22094;52.130;5.598;2023-01-23T00:08:09;1.70;99.90
23717;DHT22;22094;52.130;5.598;2023-01-23T00:10:37;1.70;99.90
23717;DHT22;22094;52.130;5.598;2023-01-23T00:13:02;1.70;99.90
23717;DHT22;22094;52.130;5.598;2023-01-23T00:15:28;1.70;99.90
23717;DHT22;22094;52.130;5.598;2023-01-23T00:17:53;1.60;99.90
23717;DHT22;22094;52.130;5.598;2023-01-23T00:20:19;1.70;99.90
23717;DHT22;22094;52.130;5.598;2023-01-23T00:22:45;1.70;99.90
23717;DHT22;22094;52.130;5.598;2023-01-23T00:25:10;1.70;99.90
23717;DHT22;22094;52.130;5.598;2023-01-23T00:27:36;1.70;99.90
23717;DHT22;22094;52.130;5.598;2023-01-23T00:30:01;1.70;99.90
23717;DHT22;22094;52.130;5.598;2023-01-23T00:32:27;1.70;99.90
23717;DHT22;22094;52.130;5.598;2023-01-23T00:34:53;1.60;99.90
23717;DHT22;22094;52.130;5.598;2023-01-23T00:37:18;1.60;99.90
23717;DHT22;22094;52.130;5.598;2023-01-23T00:39:44;1.70;99.90
23717;DHT22;22094;52.130;5.598;2023-01-23T00:42:10;1.60;99.90
23717;DHT22;22094;52.130;5.598;2023-01-23T00:44:36;1.60;99.90
23717;DHT22;22094;52.130;5.598;2023-01-23T00:47:01;1.60;99.90
23717;DHT22;22094;52.130;5.598;2023-01-23T00:49:27;1.60;99.90
23717;DHT22;22094;52.130;5.598;2023-01-23T00:51:54;1.60;99.90
23717;DHT22;22094;52.130;5.598;2023-01-23T00:54:21;1.60;99.90
23717;DHT22;22094;52.130;5.598;2023-01-23T00:56:47;1.60;99.90
23717;DHT22;22094;52.130;5.598;2023-01-23T00:59:13;1.70;99.90
23717;DHT22;22094;52.130;5.598;2023-01-23T01:01:38;1.60;99.90
23717;DHT22;22094;52.130;5.598;2023-01-23T01:04:04;1.60;99.90
23717;DHT22;22094;52.130;5.598;2023-01-23T01:06:30;1.60;99.90
23717;DHT22;22094;52.130;5.598;2023-01-23T01:08:56;1.60;99.90
23717;DHT22;22094;52.130;5.598;2023-01-23T01:11:22;1.70;99.90
23717;DHT22;22094;52.130;5.598;2023-01-23T01:13:48;1.60;99.90
23717;DHT22;22094;52.130;5.598;2023-01-23T01:16:14;1.70;99.90
23717;DHT22;22094;52.130;5.598;2023-01-23T01:18:40;2.10;99.90
23717;DHT22;22094;52.130;5.598;2023-01-23T01:21:07;1.60;99.90
23717;DHT22;22094;52.130;5.598;2023-01-23T01:23:34;1.60;99.90
23717;DHT22;22094;52.130;5.598;2023-01-23T01:26:00;1.60;99.90
23717;DHT22;22094;52.130;5.598;2023-01-23T01:28:27;1.60;99.90
23717;DHT22;22094;52.130;5.598;2023-01-23T01:30:55;1.70;99.90
23717;DHT22;22094;52.130;5.598;2023-01-23T01:33:20;1.60;99.90
23717;DHT22;22094;52.130;5.598;2023-01-23T01:35:48;1.70;99.90
23717;DHT22;22094;52.130;5.598;2023-01-23T01:38:14;1.70;99.90
23717;DHT22;22094;52.130;5.598;2023-01-23T01:40:40;1.70;99.90
23717;DHT22;22094;52.130;5.598;2023-01-23T01:43:14;1.70;99.90
23717;DHT22;22094;52.130;5.598;2023-01-23T01:48:49;1.70;99.90
23717;DHT22;22094;52.130;5.598;2023-01-23T01:51:18;1.60;99.90
23717;DHT22;22094;52.130;5.598;2023-01-23T01:53:48;1.70;99.90
23717;DHT22;22094;52.130;5.598;2023-01-23T01:56:16;2.00;99.90
23717;DHT22;22094;52.130;5.598;2023-01-23T01:58:45;1.70;99.90
23717;DHT22;22094;52.130;5.598;2023-01-23T02:01:11;1.70;99.90
23717;DHT22;22094;52.130;5.598;2023-01-23T02:03:38;1.70;99.90
23717;DHT22;22094;52.130;5.598;2023-01-23T02:06:04;1.70;99.90
23717;DHT22;22094;52.130;5.598;2023-01-23T02:08:46;1.70;99.90
23717;DHT22;22094;52.130;5.598;2023-01-23T02:11:14;1.70;99.90
23717;DHT22;22094;52.130;5.598;2023-01-23T02:13:45;1.60;99.90
23717;DHT22;22094;52.130;5.598;2023-01-23T02:16:18;1.60;99.90
23717;DHT22;22094;52.130;5.598;2023-01-23T02:18:48;1.70;99.90
23717;DHT22;22094;52.130;5.598;2023-01-23T02:21:16;1.80;99.90
23717;DHT22;22094;52.130;5.598;2023-01-23T02:24:05;1.70;99.90
23717;DHT22;22094;52.130;5.598;2023-01-23T02:26:37;1.70;99.90
23717;DHT22;22094;52.130;5.598;2023-01-23T02:29:04;1.70;99.90
23717;DHT22;22094;52.130;5.598;2023-01-23T02:31:29;1.70;99.90
23717;DHT22;22094;52.130;5.598;2023-01-23T02:33:57;1.70;99.90
23717;DHT22;22094;52.130;5.598;2023-01-23T02:36:26;1.70;99.90
23717;DHT22;22094;52.130;5.598;2023-01-23T02:41:27;1.70;99.90
23717;DHT22;22094;52.130;5.598;2023-01-23T02:43:54;1.80;99.90
23717;DHT22;22094;52.130;5.598;2023-01-23T02:46:20;1.70;99.90
23717;DHT22;22094;52.130;5.598;2023-01-23T02:48:48;1.80;99.90
23717;DHT22;22094;52.130;5.598;2023-01-23T02:51:14;1.80;99.90
23717;DHT22;22094;52.130;5.598;2023-01-23T02:53:41;1.80;99.90
23717;DHT22;22094;52.130;5.598;2023-01-23T02:56:07;1.80;99.90
23717;DHT22;22094;52.130;5.598;2023-01-23T02:58:33;1.80;99.90
23717;DHT22;22094;52.130;5.598;2023-01-23T03:01:17;1.80;99.90
23717;DHT22;22094;52.130;5.598;2023-01-23T03:03:42;1.80;99.90
23717;DHT22;22094;52.130;5.598;2023-01-23T03:06:09;1.80;99.90
23717;DHT22;22094;52.130;5.598;2023-01-23T03:08:36;1.80;99.90
23717;DHT22;22094;52.130;5.598;2023-01-23T03:11:11;1.80;99.90
23717;DHT22;22094;52.130;5.598;2023-01-23T03:13:37;1.80;99.90
23717;DHT22;22094;52.130;5.598;2023-01-23T03:16:03;1.80;99.90
23717;DHT22;22094;52.130;5.598;2023-01-23T03:18:28;1.80;99.90
23717;DHT22;22094;52.130;5.598;2023-01-23T03:20:59;1.70;99.90
23717;DHT22;22094;52.130;5.598;2023-01-23T03:23:25;1.70;99.90
23717;DHT22;22094;52.130;5.598;2023-01-23T03:25:51;1.80;99.90
23717;DHT22;22094;52.130;5.598;2023-01-23T03:28:26;1.80;99.90
23717;DHT22;22094;52.130;5.598;2023-01-23T03:31:11;1.80;99.90
23717;DHT22;22094;52.130;5.598;2023-01-23T03:33:38;1.80;99.90
23717;DHT22;22094;52.130;5.598;2023-01-23T03:36:06;1.80;99.90
23717;DHT22;22094;52.130;5.598;2023-01-23T03:38:36;1.80;99.90
23717;DHT22;22094;52.130;5.598;2023-01-23T03:41:02;1.80;99.90
23717;DHT22;22094;52.130;5.598;2023-01-23T03:43:46;1.80;99.90
23717;DHT22;22094;52.130;5.598;2023-01-23T03:46:12;1.80;99.90
23717;DHT22;22094;52.130;5.598;2023-01-23T03:48:37;1.80;99.90
23717;DHT22;22094;52.130;5.598;2023-01-23T03:51:04;1.80;99.90
23717;DHT22;22094;52.130;5.598;2023-01-23T03:53:30;1.80;99.90
23717;DHT22;22094;52.130;5.598;2023-01-23T03:55:55;1.70;99.90
23717;DHT22;22094;52.130;5.598;2023-01-23T03:58:21;1.80;99.90
23717;DHT22;22094;52.130;5.598;2023-01-23T04:00:47;1.70;99.90
23717;DHT22;22094;52.130;5.598;2023-01-23T04:03:12;1.80;99.90
23717;DHT22;22094;52.130;5.598;2023-01-23T04:05:38;1.80;99.90
23717;DHT22;22094;52.130;5.598;2023-01-23T04:08:03;1.80;99.90
23717;DHT22;22094;52.130;5.598;2023-01-23T04:10:29;1.70;99.90
23717;DHT22;22094;52.130;5.598;2023-01-23T04:12:55;1.80;99.90
23717;DHT22;22094;52.130;5.598;2023-01-23T04:15:21;1.80;99.90
23717;DHT22;22094;52.130;5.598;2023-01-23T04:17:46;1.80;99.90
23717;DHT22;22094;52.130;5.598;2023-01-23T04:20:13;1.80;99.90
23717;DHT22;22094;52.130;5.598;2023-01-23T04:22:38;1.80;99.90
23717;DHT22;22094;52.130;5.598;2023-01-23T04:25:05;1.80;99.90
23717;DHT22;22094;52.130;5.598;2023-01-23T04:27:31;1.90;99.90
23717;DHT22;22094;52.130;5.598;2023-01-23T04:29:57;1.90;99.90
23717;DHT22;22094;52.130;5.598;2023-01-23T04:32:24;1.80;99.90
23717;DHT22;22094;52.130;5.598;2023-01-23T04:34:49;1.90;99.90
23717;DHT22;22094;52.130;5.598;2023-01-23T04:37:16;1.90;99.90
23717;DHT22;22094;52.130;5.598;2023-01-23T04:39:42;1.80;99.90
23717;DHT22;22094;52.130;5.598;2023-01-23T04:42:08;1.90;99.90
23717;DHT22;22094;52.130;5.598;2023-01-23T04:44:34;1.90;99.90
23717;DHT22;22094;52.130;5.598;2023-01-23T04:46:59;1.90;99.90
23717;DHT22;22094;52.130;5.598;2023-01-23T04:49:25;1.90;99.90
23717;DHT22;22094;52.130;5.598;2023-01-23T04:51:52;1.90;99.90
23717;DHT22;22094;52.130;5.598;2023-01-23T04:54:18;1.90;99.90
23717;DHT22;22094;52.130;5.598;2023-01-23T04:56:44;2.00;99.90
23717;DHT22;22094;52.130;5.598;2023-01-23T04:59:10;1.90;99.90
23717;DHT22;22094;52.130;5.598;2023-01-23T05:01:42;1.90;99.90
23717;DHT22;22094;52.130;5.598;2023-01-23T05:04:10;2.30;99.90
23717;DHT22;22094;52.130;5.598;2023-01-23T05:06:49;2.40;99.90
23717;DHT22;22094;52.130;5.598;2023-01-23T05:09:14;2.00;99.90
23717;DHT22;22094;52.130;5.598;2023-01-23T05:11:40;2.00;99.90
23717;DHT22;22094;52.130;5.598;2023-01-23T05:14:06;2.00;99.90
23717;DHT22;22094;52.130;5.598;2023-01-23T05:16:31;2.40;99.90
23717;DHT22;22094;52.130;5.598;2023-01-23T05:18:57;1.90;99.90
23717;DHT22;22094;52.130;5.598;2023-01-23T05:21:22;2.50;99.90
23717;DHT22;22094;52.130;5.598;2023-01-23T05:23:48;1.90;99.90
23717;DHT22;22094;52.130;5.598;2023-01-23T05:26:13;1.90;99.90
23717;DHT22;22094;52.130;5.598;2023-01-23T05:28:39;1.80;99.90
23717;DHT22;22094;52.130;5.598;2023-01-23T05:31:04;1.90;99.90
23717;DHT22;22094;52.130;5.598;2023-01-23T05:33:30;1.90;99.90
23717;DHT22;22094;52.130;5.598;2023-01-23T05:35:59;1.90;99.90
23717;DHT22;22094;52.130;5.598;2023-01-23T05:38:25;2.00;99.90
23717;DHT22;22094;52.130;5.598;2023-01-23T05:40:51;1.90;99.90
23717;DHT22;22094;52.130;5.598;2023-01-23T05:43:17;2.40;99.90
23717;DHT22;22094;52.130;5.598;2023-01-23T05:45:42;1.90;99.90
23717;DHT22;22094;52.130;5.598;2023-01-23T05:48:08;1.90;99.90
23717;DHT22;22094;52.130;5.598;2023-01-23T05:50:33;2.00;99.90
23717;DHT22;22094;52.130;5.598;2023-01-23T05:52:59;1.90;99.90
23717;DHT22;22094;52.130;5.598;2023-01-23T05:55:25;1.90;99.90
23717;DHT22;22094;52.130;5.598;2023-01-23T05:57:50;1.90;99.90
23717;DHT22;22094;52.130;5.598;2023-01-23T06:00:16;1.90;99.90
23717;DHT22;22094;52.130;5.598;2023-01-23T06:02:42;1.90;99.90
23717;DHT22;22094;52.130;5.598;2023-01-23T06:05:08;2.00;99.90
23717;DHT22;22094;52.130;5.598;2023-01-23T06:07:34;1.90;99.90
23717;DHT22;22094;52.130;5.598;2023-01-23T06:09:59;1.90;99.90
23717;DHT22;22094;52.130;5.598;2023-01-23T06:12:25;1.90;99.90
23717;DHT22;22094;52.130;5.598;2023-01-23T06:14:50;1.90;99.90
23717;DHT22;22094;52.130;5.598;2023-01-23T06:17:16;1.90;99.90
23717;DHT22;22094;52.130;5.598;2023-01-23T06:19:41;1.90;99.90
23717;DHT22;22094;52.130;5.598;2023-01-23T06:22:07;2.00;99.90
23717;DHT22;22094;52.130;5.598;2023-01-23T06:24:33;2.00;99.90
23717;DHT22;22094;52.130;5.598;2023-01-23T06:26:58;1.90;99.90
23717;DHT22;22094;52.130;5.598;2023-01-23T06:29:24;1.90;99.90
23717;DHT22;22094;52.130;5.598;2023-01-23T06:31:49;1.90;99.90
23717;DHT22;22094;52.130;5.598;2023-01-23T06:34:15;1.90;99.90
23717;DHT22;22094;52.130;5.598;2023-01-23T06:36:41;1.90;99.90
23717;DHT22;22094;52.130;5.598;2023-01-23T06:39:07;1.90;99.90
23717;DHT22;22094;52.130;5.598;2023-01-23T06:41:35;1.80;99.90
23717;DHT22;22094;52.130;5.598;2023-01-23T06:44:01;1.90;99.90
23717;DHT22;22094;52.130;5.598;2023-01-23T06:46:26;2.00;99.90
23717;DHT22;22094;52.130;5.598;2023-01-23T06:48:52;2.00;99.90
23717;DHT22;22094;52.130;5.598;2023-01-23T06:51:18;1.90;99.90
23717;DHT22;22094;52.130;5.598;2023-01-23T06:53:44;1.90;99.90
23717;DHT22;22094;52.130;5.598;2023-01-23T06:56:09;2.00;99.90
23717;DHT22;22094;52.130;5.598;2023-01-23T06:58:36;2.00;99.90
23717;DHT22;22094;52.130;5.598;2023-01-23T07:01:14;2.00;99.90
23717;DHT22;22094;52.130;5.598;2023-01-23T07:03:40;1.90;99.90
23717;DHT22;22094;52.130;5.598;2023-01-23T07:06:07;1.90;99.90
23717;DHT22;22094;52.130;5.598;2023-01-23T07:08:33;2.00;99.90
23717;DHT22;22094;52.130;5.598;2023-01-23T07:10:59;2.00;99.90
23717;DHT22;22094;52.130;5.598;2023-01-23T07:13:25;2.00;99.90
23717;DHT22;22094;52.130;5.598;2023-01-23T07:15:51;2.10;99.90
23717;DHT22;22094;52.130;5.598;2023-01-23T07:18:17;2.10;99.90
23717;DHT22;22094;52.130;5.598;2023-01-23T07:20:46;2.10;99.90
23717;DHT22;22094;52.130;5.598;2023-01-23T07:23:12;2.10;99.90
23717;DHT22;22094;52.130;5.598;2023-01-23T07:25:38;2.10;99.90
23717;DHT22;22094;52.130;5.598;2023-01-23T07:28:04;2.20;99.90
23717;DHT22;22094;52.130;5.598;2023-01-23T07:30:30;2.20;99.90
23717;DHT22;22094;52.130;5.598;2023-01-23T07:32:56;2.20;99.90
23717;DHT22;22094;52.130;5.598;2023-01-23T07:35:23;2.20;99.90
23717;DHT22;22094;52.130;5.598;2023-01-23T07:37:49;2.10;99.90
23717;DHT22;22094;52.130;5.598;2023-01-23T07:40:14;2.50;99.90
23717;DHT22;22094;52.130;5.598;2023-01-23T07:42:40;2.10;99.90
23717;DHT22;22094;52.130;5.598;2023-01-23T07:45:07;2.10;99.90
23717;DHT22;22094;52.130;5.598;2023-01-23T07:47:34;2.20;99.90
23717;DHT22;22094;52.130;5.598;2023-01-23T07:49:59;2.10;99.90
23717;DHT22;22094;52.130;5.598;2023-01-23T07:52:25;2.10;99.90
23717;DHT22;22094;52.130;5.598;2023-01-23T07:54:51;2.10;99.90
23717;DHT22;22094;52.130;5.598;2023-01-23T07:57:16;2.20;99.90
23717;DHT22;22094;52.130;5.598;2023-01-23T07:59:42;2.10;99.90
23717;DHT22;22094;52.130;5.598;2023-01-23T08:02:09;2.10;99.90
23717;DHT22;22094;52.130;5.598;2023-01-23T08:04:35;2.10;99.90
23717;DHT22;22094;52.130;5.598;2023-01-23T08:07:01;2.20;99.90
23717;DHT22;22094;52.130;5.598;2023-01-23T08:09:26;2.20;99.90
23717;DHT22;22094;52.130;5.598;2023-01-23T08:11:52;2.10;99.90
23717;DHT22;22094;52.130;5.598;2023-01-23T08:14:18;2.90;99.90
23717;DHT22;22094;52.130;5.598;2023-01-23T08:16:47;2.20;99.90
23717;DHT22;22094;52.130;5.598;2023-01-23T08:19:12;2.60;99.90
23717;DHT22;22094;52.130;5.598;2023-01-23T08:24:04;2.20;99.90
23717;DHT22;22094;52.130;5.598;2023-01-23T08:26:30;2.30;99.90
23717;DHT22;22094;52.130;5.598;2023-01-23T08:28:55;-0.70;99.90
23717;DHT22;22094;52.130;5.598;2023-01-23T08:31:21;2.20;99.90
23717;DHT22;22094;52.130;5.598;2023-01-23T08:33:46;2.30;99.90
23717;DHT22;22094;52.130;5.598;2023-01-23T08:36:12;2.30;99.90
23717;DHT22;22094;52.130;5.598;2023-01-23T08:38:38;2.20;99.90
23717;DHT22;22094;52.130;5.598;2023-01-23T08:41:04;2.40;99.90
23717;DHT22;22094;52.130;5.598;2023-01-23T08:43:31;2.50;99.90
23717;DHT22;22094;52.130;5.598;2023-01-23T08:45:57;2.30;99.90
23717;DHT22;22094;52.130;5.598;2023-01-23T08:48:25;0.30;99.90
23717;DHT22;22094;52.130;5.598;2023-01-23T08:50:56;2.50;99.90
23717;DHT22;22094;52.130;5.598;2023-01-23T08:55:48;2.50;99.90
23717;DHT22;22094;52.130;5.598;2023-01-23T09:07:59;0.70;99.90
23717;DHT22;22094;52.130;5.598;2023-01-23T09:12:52;2.70;99.90
23717;DHT22;22094;52.130;5.598;2023-01-23T09:17:44;2.60;99.90
23717;DHT22;22094;52.130;5.598;2023-01-23T09:20:10;2.70;99.90
23717;DHT22;22094;52.130;5.598;2023-01-23T09:22:36;3.20;99.90
23717;DHT22;22094;52.130;5.598;2023-01-23T09:25:02;6.10;99.90
23717;DHT22;22094;52.130;5.598;2023-01-23T09:29:54;3.20;99.90
23717;DHT22;22094;52.130;5.598;2023-01-23T09:34:45;3.90;99.90
23717;DHT22;22094;52.130;5.598;2023-01-23T09:37:14;2.50;99.90
23717;DHT22;22094;52.130;5.598;2023-01-23T09:39:41;3.50;99.90
23717;DHT22;22094;52.130;5.598;2023-01-23T09:42:18;3.10;99.90
23717;DHT22;22094;52.130;5.598;2023-01-23T09:44:50;3.00;99.90
23717;DHT22;22094;52.130;5.598;2023-01-23T09:47:27;5.90;99.90
23717;DHT22;22094;52.130;5.598;2023-01-23T09:50:07;3.70;99.90
23717;DHT22;22094;52.130;5.598;2023-01-23T09:52:45;3.20;99.90
23717;DHT22;22094;52.130;5.598;2023-01-23T09:55:12;3.10;99.90
23717;DHT22;22094;52.130;5.598;2023-01-23T09:57:47;3.40;99.90
23717;DHT22;22094;52.130;5.598;2023-01-23T10:00:23;4.00;99.90
23717;DHT22;22094;52.130;5.598;2023-01-23T10:05:21;5.90;99.90
23717;DHT22;22094;52.130;5.598;2023-01-23T10:10:50;5.20;99.90
23717;DHT22;22094;52.130;5.598;2023-01-23T10:14:03;3.60;99.90
23717;DHT22;22094;52.130;5.598;2023-01-23T10:24:48;5.00;99.90
23717;DHT22;22094;52.130;5.598;2023-01-23T10:27:21;4.00;99.90
23717;DHT22;22094;52.130;5.598;2023-01-23T10:29:51;1.30;99.90
23717;DHT22;22094;52.130;5.598;2023-01-23T10:32:25;4.00;99.90
23717;DHT22;22094;52.130;5.598;2023-01-23T10:34:53;4.00;99.90
23717;DHT22;22094;52.130;5.598;2023-01-23T10:37:39;3.90;99.90
23717;DHT22;22094;52.130;5.598;2023-01-23T10:40:19;4.00;99.90
23717;DHT22;22094;52.130;5.598;2023-01-23T10:43:14;4.00;99.90
23717;DHT22;22094;52.130;5.598;2023-01-23T10:45:40;3.70;99.90
23717;DHT22;22094;52.130;5.598;2023-01-23T10:48:47;5.50;99.90
23717;DHT22;22094;52.130;5.598;2023-01-23T10:51:32;3.40;99.90
23717;DHT22;22094;52.130;5.598;2023-01-23T10:54:05;3.50;99.90
23717;DHT22;22094;52.130;5.598;2023-01-23T10:56:36;4.90;99.90
23717;DHT22;22094;52.130;5.598;2023-01-23T10:59:04;4.10;99.90
23717;DHT22;22094;52.130;5.598;2023-01-23T11:01:35;4.20;99.90
23717;DHT22;22094;52.130;5.598;2023-01-23T11:04:20;2.80;99.90
23717;DHT22;22094;52.130;5.598;2023-01-23T11:09:30;5.90;99.90
23717;DHT22;22094;52.130;5.598;2023-01-23T11:12:04;5.10;99.90
23717;DHT22;22094;52.130;5.598;2023-01-23T11:14:30;4.40;99.90
23717;DHT22;22094;52.130;5.598;2023-01-23T11:17:11;4.40;99.90
23717;DHT22;22094;52.130;5.598;2023-01-23T11:24:37;4.50;99.90
23717;DHT22;22094;52.130;5.598;2023-01-23T11:32:28;4.60;99.90
23717;DHT22;22094;52.130;5.598;2023-01-23T11:35:10;3.80;99.90
23717;DHT22;22094;52.130;5.598;2023-01-23T11:37:39;4.70;99.90
23717;DHT22;22094;52.130;5.598;2023-01-23T11:40:11;3.80;99.90
23717;DHT22;22094;52.130;5.598;2023-01-23T11:42:40;4.60;99.90
23717;DHT22;22094;52.130;5.598;2023-01-23T11:54:01;3.70;99.90
23717;DHT22;22094;52.130;5.598;2023-01-23T12:02:18;4.60;99.90
23717;DHT22;22094;52.130;5.598;2023-01-23T12:07:48;4.80;99.90
23717;DHT22;22094;52.130;5.598;2023-01-23T12:11:02;6.50;99.90
23717;DHT22;22094;52.130;5.598;2023-01-23T12:13:55;4.80;99.90
23717;DHT22;22094;52.130;5.598;2023-01-23T12:16:41;4.20;99.90
23717;DHT22;22094;52.130;5.598;2023-01-23T12:19:35;5.00;99.90
23717;DHT22;22094;52.130;5.598;2023-01-23T12:22:21;5.10;99.90
23717;DHT22;22094;52.130;5.598;2023-01-23T12:27:48;5.10;99.90
23717;DHT22;22094;52.130;5.598;2023-01-23T12:33:26;7.90;99.90
23717;DHT22;22094;52.130;5.598;2023-01-23T12:38:44;5.10;99.90
23717;DHT22;22094;52.130;5.598;2023-01-23T12:41:33;5.00;99.90
23717;DHT22;22094;52.130;5.598;2023-01-23T12:44:21;7.00;99.90
23717;DHT22;22094;52.130;5.598;2023-01-23T12:49:45;5.30;99.90
23717;DHT22;22094;52.130;5.598;2023-01-23T12:52:24;7.00;99.90
23717;DHT22;22094;52.130;5.598;2023-01-23T12:55:20;4.90;99.90
23717;DHT22;22094;52.130;5.598;2023-01-23T12:57:47;5.10;99.90
23717;DHT22;22094;52.130;5.598;2023-01-23T13:16:47;4.90;99.90
23717;DHT22;22094;52.130;5.598;2023-01-23T13:19:23;4.90;99.90
23717;DHT22;22094;52.130;5.598;2023-01-23T13:38:33;4.80;99.90
23717;DHT22;22094;52.130;5.598;2023-01-23T13:46:36;4.70;99.90
23717;DHT22;22094;52.130;5.598;2023-01-23T13:52:11;4.30;99.90
23717;DHT22;22094;52.130;5.598;2023-01-23T13:55:00;4.40;99.90
23717;DHT22;22094;52.130;5.598;2023-01-23T13:57:45;4.40;99.90
23717;DHT22;22094;52.130;5.598;2023-01-23T14:00:14;4.40;99.90
23717;DHT22;22094;52.130;5.598;2023-01-23T14:03:29;4.40;99.90
23717;DHT22;22094;52.130;5.598;2023-01-23T14:06:05;4.60;99.90
23717;DHT22;22094;52.130;5.598;2023-01-23T14:08:31;4.30;99.90
23717;DHT22;22094;52.130;5.598;2023-01-23T14:10:56;4.20;99.90
23717;DHT22;22094;52.130;5.598;2023-01-23T14:13:22;4.20;99.90
23717;DHT22;22094;52.130;5.598;2023-01-23T14:15:51;4.30;99.90
23717;DHT22;22094;52.130;5.598;2023-01-23T14:18:43;4.50;99.90
23717;DHT22;22094;52.130;5.598;2023-01-23T14:21:29;4.40;99.90
23717;DHT22;22094;52.130;5.598;2023-01-23T14:23:59;4.70;99.90
23717;DHT22;22094;52.130;5.598;2023-01-23T14:26:29;4.40;99.90
23717;DHT22;22094;52.130;5.598;2023-01-23T14:28:59;4.10;99.90
23717;DHT22;22094;52.130;5.598;2023-01-23T14:31:30;4.00;99.90
23717;DHT22;22094;52.130;5.598;2023-01-23T14:34:04;1.20;99.90
23717;DHT22;22094;52.130;5.598;2023-01-23T14:36:33;4.30;99.90
23717;DHT22;22094;52.130;5.598;2023-01-23T14:39:00;6.70;99.90
23717;DHT22;22094;52.130;5.598;2023-01-23T14:41:31;6.10;99.90
23717;DHT22;22094;52.130;5.598;2023-01-23T14:43:59;4.10;99.90
23717;DHT22;22094;52.130;5.598;2023-01-23T14:46:38;4.40;99.90
23717;DHT22;22094;52.130;5.598;2023-01-23T14:49:08;5.00;99.90
23717;DHT22;22094;52.130;5.598;2023-01-23T14:51:34;4.40;99.90
23717;DHT22;22094;52.130;5.598;2023-01-23T14:54:14;4.20;99.90
23717;DHT22;22094;52.130;5.598;2023-01-23T14:56:41;4.20;99.90
23717;DHT22;22094;52.130;5.598;2023-01-23T14:59:20;4.30;99.90
23717;DHT22;22094;52.130;5.598;2023-01-23T15:01:58;4.30;99.90
23717;DHT22;22094;52.130;5.598;2023-01-23T15:04:26;1.30;99.90
23717;DHT22;22094;52.130;5.598;2023-01-23T15:06:56;4.30;99.90
23717;DHT22;22094;52.130;5.598;2023-01-23T15:09:31;4.40;99.90
23717;DHT22;22094;52.130;5.598;2023-01-23T15:12:10;4.30;99.90
23717;DHT22;22094;52.130;5.598;2023-01-23T15:14:39;4.20;99.90
23717;DHT22;22094;52.130;5.598;2023-01-23T15:17:11;4.20;99.90
23717;DHT22;22094;52.130;5.598;2023-01-23T15:19:38;4.20;99.90
23717;DHT22;22094;52.130;5.598;2023-01-23T15:22:26;4.10;99.90
23717;DHT22;22094;52.130;5.598;2023-01-23T15:24:52;4.10;99.90
23717;DHT22;22094;52.130;5.598;2023-01-23T15:27:32;4.00;99.90
23717;DHT22;22094;52.130;5.598;2023-01-23T15:30:29;4.00;99.90
23717;DHT22;22094;52.130;5.598;2023-01-23T15:32:56;4.00;99.90
23717;DHT22;22094;52.130;5.598;2023-01-23T15:35:23;4.00;99.90
23717;DHT22;22094;52.130;5.598;2023-01-23T15:37:50;4.00;99.90
23717;DHT22;22094;52.130;5.598;2023-01-23T15:40:25;4.00;99.90
23717;DHT22;22094;52.130;5.598;2023-01-23T15:43:02;4.00;99.90
23717;DHT22;22094;52.130;5.598;2023-01-23T15:45:28;3.90;99.90
23717;DHT22;22094;52.130;5.598;2023-01-23T15:47:53;3.80;99.90
23717;DHT22;22094;52.130;5.598;2023-01-23T15:50:19;3.80;99.90
23717;DHT22;22094;52.130;5.598;2023-01-23T15:52:50;3.30;99.90
23717;DHT22;22094;52.130;5.598;2023-01-23T15:55:17;3.50;99.90
23717;DHT22;22094;52.130;5.598;2023-01-23T15:57:43;3.40;99.90
23717;DHT22;22094;52.130;5.598;2023-01-23T16:02:41;3.20;99.90
23717;DHT22;22094;52.130;5.598;2023-01-23T16:05:07;3.20;99.90
23717;DHT22;22094;52.130;5.598;2023-01-23T16:07:35;3.10;99.90
23717;DHT22;22094;52.130;5.598;2023-01-23T16:10:24;3.10;99.90
23717;DHT22;22094;52.130;5.598;2023-01-23T16:12:54;3.10;99.90
23717;DHT22;22094;52.130;5.598;2023-01-23T16:15:22;3.10;99.90
23717;DHT22;22094;52.130;5.598;2023-01-23T16:17:48;3.10;99.90
23717;DHT22;22094;52.130;5.598;2023-01-23T16:20:38;3.10;99.90
23717;DHT22;22094;52.130;5.598;2023-01-23T16:25:57;3.20;99.90
23717;DHT22;22094;52.130;5.598;2023-01-23T16:28:23;3.30;99.90
23717;DHT22;22094;52.130;5.598;2023-01-23T16:30:51;3.30;99.90
23717;DHT22;22094;52.130;5.598;2023-01-23T16:33:17;3.30;99.90
23717;DHT22;22094;52.130;5.598;2023-01-23T16:35:44;3.40;99.90
23717;DHT22;22094;52.130;5.598;2023-01-23T16:38:24;3.60;99.90
23717;DHT22;22094;52.130;5.598;2023-01-23T16:40:51;3.40;99.90
23717;DHT22;22094;52.130;5.598;2023-01-23T16:43:18;3.40;99.90
23717;DHT22;22094;52.130;5.598;2023-01-23T16:45:44;3.90;99.90
23717;DHT22;22094;52.130;5.598;2023-01-23T16:48:09;3.40;99.90
23717;DHT22;22094;52.130;5.598;2023-01-23T16:50:38;3.40;99.90
23717;DHT22;22094;52.130;5.598;2023-01-23T16:53:28;3.50;99.90
23717;DHT22;22094;52.130;5.598;2023-01-23T16:55:57;3.50;99.90
23717;DHT22;22094;52.130;5.598;2023-01-23T16:58:26;3.50;99.90
23717;DHT22;22094;52.130;5.598;2023-01-23T17:00:57;3.50;99.90
23717;DHT22;22094;52.130;5.598;2023-01-23T17:03:29;3.50;99.90
23717;DHT22;22094;52.130;5.598;2023-01-23T17:05:56;3.50;99.90
23717;DHT22;22094;52.130;5.598;2023-01-23T17:08:23;3.50;99.90
23717;DHT22;22094;52.130;5.598;2023-01-23T17:10:53;3.50;99.90
23717;DHT22;22094;52.130;5.598;2023-01-23T17:13:20;3.50;99.90
23717;DHT22;22094;52.130;5.598;2023-01-23T17:15:50;3.50;99.90
23717;DHT22;22094;52.130;5.598;2023-01-23T17:18:26;3.50;99.90
23717;DHT22;22094;52.130;5.598;2023-01-23T17:20:52;3.50;99.90
23717;DHT22;22094;52.130;5.598;2023-01-23T17:23:19;3.50;99.90
23717;DHT22;22094;52.130;5.598;2023-01-23T17:25:45;3.50;99.90
23717;DHT22;22094;52.130;5.598;2023-01-23T17:28:13;3.80;99.90
23717;DHT22;22094;52.130;5.598;2023-01-23T17:30:40;3.50;99.90
23717;DHT22;22094;52.130;5.598;2023-01-23T17:33:19;3.50;99.90
23717;DHT22;22094;52.130;5.598;2023-01-23T17:35:46;3.50;99.90
23717;DHT22;22094;52.130;5.598;2023-01-23T17:38:32;3.50;99.90
23717;DHT22;22094;52.130;5.598;2023-01-23T17:40:59;3.50;99.90
23717;DHT22;22094;52.130;5.598;2023-01-23T17:43:25;4.10;99.90
23717;DHT22;22094;52.130;5.598;2023-01-23T17:45:51;3.90;99.90
23717;DHT22;22094;52.130;5.598;2023-01-23T17:48:29;3.50;99.90
23717;DHT22;22094;52.130;5.598;2023-01-23T17:50:56;3.50;99.90
23717;DHT22;22094;52.130;5.598;2023-01-23T17:53:22;3.50;99.90
23717;DHT22;22094;52.130;5.598;2023-01-23T17:55:48;3.40;99.90
23717;DHT22;22094;52.130;5.598;2023-01-23T17:58:16;3.50;99.90
23717;DHT22;22094;52.130;5.598;2023-01-23T18:00:43;3.50;99.90
23717;DHT22;22094;52.130;5.598;2023-01-23T18:03:16;3.40;99.90
23717;DHT22;22094;52.130;5.598;2023-01-23T18:05:43;3.50;99.90
23717;DHT22;22094;52.130;5.598;2023-01-23T18:08:12;3.60;99.90
23717;DHT22;22094;52.130;5.598;2023-01-23T18:10:39;3.50;99.90
23717;DHT22;22094;52.130;5.598;2023-01-23T18:13:17;3.40;99.90